Time;durP1;ratioP1;P1;durP2;ratioP2;P2;SDS_P1;SDS_P2;PMS_P1;PMS_P2;Temp;Humidity;BMP_temperature;BMP_pressure;BME280_temperature;BME280_humidity;BME280_pressure;Samples;Min_cycle;Max_cycle;Signal;HPM_P1;HPM_P2
2021/12/20 00:00:20;;;;;;;3.13;1.70;;;5.30;99.90;;;;;;5012397;28;20282;-94
2021/12/20 00:02:53;;;;;;;4.17;1.60;;;5.30;99.90;;;;;;5013047;28;20245;-93
2021/12/20 00:05:27;;;;;;;3.97;1.70;;;5.30;99.90;;;;;;5028699;28;20228;-94
2021/12/20 00:07:58;;;;;;;3.63;1.33;;;5.20;99.90;;;;;;5034693;28;20209;-95
2021/12/20 00:10:29;;;;;;;6.83;2.20;;;5.10;99.90;;;;;;5034257;28;20202;-95
2021/12/20 00:13:04;;;;;;;3.43;1.70;;;5.10;99.90;;;;;;5031902;28;20214;-94
2021/12/20 00:15:35;;;;;;;4.50;1.60;;;5.00;99.90;;;;;;5035393;28;20217;-94
2021/12/20 00:18:07;;;;;;;3.83;1.70;;;4.90;99.90;;;;;;5025123;28;20214;-94
2021/12/20 00:20:40;;;;;;;4.77;2.37;;;4.80;99.90;;;;;;5022851;28;20209;-94
2021/12/20 00:23:11;;;;;;;4.67;2.03;;;4.80;99.90;;;;;;5023459;28;20217;-94
2021/12/20 00:25:46;;;;;;;6.80;1.90;;;4.80;99.90;;;;;;5019533;28;20267;-94
2021/12/20 00:28:18;;;;;;;5.90;1.77;;;4.70;99.90;;;;;;5018818;28;20275;-94
2021/12/20 00:30:50;;;;;;;4.47;1.60;;;4.60;99.90;;;;;;5025908;28;20225;-94
2021/12/20 00:33:24;;;;;;;2.90;1.63;;;4.60;99.90;;;;;;5023547;28;20278;-94
2021/12/20 00:35:57;;;;;;;4.70;1.80;;;4.50;99.90;;;;;;5006360;28;20202;-93
2021/12/20 00:41:17;;;;;;;5.50;1.57;;;4.40;99.90;;;;;;5020781;28;20209;-94
2021/12/20 00:43:48;;;;;;;6.20;2.17;;;4.30;99.90;;;;;;5004223;28;20209;-94
2021/12/20 00:46:20;;;;;;;8.20;1.97;;;4.30;99.90;;;;;;5019992;28;20257;-95
2021/12/20 00:48:52;;;;;;;7.57;2.53;;;4.30;99.90;;;;;;5002275;28;20256;-94
2021/12/20 00:51:25;;;;;;;6.37;2.23;;;4.20;99.90;;;;;;5019186;28;20249;-94
2021/12/20 00:53:56;;;;;;;5.13;2.23;;;4.10;99.90;;;;;;5019736;28;20242;-94
2021/12/20 00:56:27;;;;;;;5.10;2.20;;;4.10;99.90;;;;;;5019042;28;20340;-93
2021/12/20 00:59:00;;;;;;;7.47;1.80;;;4.00;99.90;;;;;;5002478;28;20212;-91
2021/12/20 01:01:32;;;;;;;4.80;1.83;;;4.00;99.90;;;;;;5002261;28;20224;-94
2021/12/20 01:04:03;;;;;;;4.80;2.23;;;4.00;99.90;;;;;;5023987;28;20205;-94
2021/12/20 01:06:37;;;;;;;6.07;2.00;;;3.90;99.90;;;;;;4983093;28;20234;-94
2021/12/20 01:09:08;;;;;;;6.20;2.00;;;3.90;99.90;;;;;;5001439;28;20202;-94
2021/12/20 01:11:41;;;;;;;4.43;2.30;;;3.80;99.90;;;;;;5000967;28;20217;-94
2021/12/20 01:14:21;;;;;;;6.00;2.20;;;3.80;99.90;;;;;;5001222;28;20321;-93
2021/12/20 01:16:55;;;;;;;4.17;2.07;;;3.80;99.90;;;;;;5000394;28;20209;-95
2021/12/20 01:19:26;;;;;;;3.83;1.83;;;3.70;99.90;;;;;;5000371;28;20213;-95
2021/12/20 01:21:59;;;;;;;6.83;2.13;;;3.70;99.90;;;;;;4982420;28;20249;-94
2021/12/20 01:24:30;;;;;;;13.90;2.40;;;3.70;99.90;;;;;;4999786;28;20583;-94
2021/12/20 01:27:01;;;;;;;5.27;2.23;;;3.60;99.90;;;;;;4998889;28;20262;-93
2021/12/20 01:29:32;;;;;;;5.20;1.87;;;3.60;99.90;;;;;;4999565;28;20241;-93
2021/12/20 01:32:04;;;;;;;7.53;2.67;;;3.50;99.90;;;;;;5001036;28;20249;-93
2021/12/20 01:34:36;;;;;;;4.00;2.10;;;3.50;99.90;;;;;;5015635;28;20270;-92
2021/12/20 01:37:09;;;;;;;7.57;2.50;;;3.40;99.90;;;;;;5028423;28;20278;-94
2021/12/20 01:39:41;;;;;;;5.40;2.47;;;3.40;99.90;;;;;;5016552;28;20207;-90
2021/12/20 01:42:17;;;;;;;3.20;2.10;;;3.40;99.90;;;;;;5014376;28;20210;-94
2021/12/20 01:44:50;;;;;;;4.80;2.70;;;3.40;99.90;;;;;;5011988;28;20217;-95
2021/12/20 01:47:22;;;;;;;8.70;2.50;;;3.40;99.90;;;;;;5012427;28;21668;-95
2021/12/20 01:49:59;;;;;;;5.30;2.37;;;3.30;99.90;;;;;;5019706;28;20206;-94
2021/12/20 01:52:40;;;;;;;6.70;2.53;;;3.30;99.90;;;;;;5019248;28;20217;-94
2021/12/20 01:55:12;;;;;;;7.50;2.33;;;3.30;99.90;;;;;;5018682;28;20251;-94
2021/12/20 01:57:44;;;;;;;8.47;2.20;;;3.20;99.90;;;;;;5018692;28;20573;-95
2021/12/20 02:00:17;;;;;;;8.07;2.43;;;3.20;99.90;;;;;;5002026;28;20316;-94
2021/12/20 02:02:50;;;;;;;5.10;2.43;;;3.10;99.90;;;;;;5020266;28;20268;-95
2021/12/20 02:05:26;;;;;;;7.27;2.60;;;3.10;99.90;;;;;;5020082;28;20214;-92
2021/12/20 02:08:13;;;;;;;4.90;2.17;;;3.10;99.90;;;;;;5020845;28;20209;-94
2021/12/20 02:10:46;;;;;;;4.33;2.13;;;3.10;99.90;;;;;;5018879;28;20225;-93
2021/12/20 02:13:19;;;;;;;3.50;1.90;;;3.00;99.90;;;;;;5018628;28;20232;-93
2021/12/20 02:15:53;;;;;;;6.03;2.60;;;3.00;99.90;;;;;;5019225;28;20210;-93
2021/12/20 02:18:25;;;;;;;3.77;2.00;;;2.90;99.90;;;;;;5019390;28;20212;-94
2021/12/20 02:20:59;;;;;;;7.83;2.70;;;2.80;99.90;;;;;;5018379;28;20213;-94
2021/12/20 02:23:30;;;;;;;3.20;2.00;;;2.80;99.90;;;;;;5018330;28;20256;-94
2021/12/20 02:26:01;;;;;;;6.07;2.60;;;2.80;99.90;;;;;;5018256;28;20221;-95
2021/12/20 02:28:37;;;;;;;3.83;2.60;;;2.80;99.90;;;;;;5018027;28;20240;-95
2021/12/20 02:37:14;;;;;;;8.03;3.47;;;2.70;99.90;;;;;;5016924;28;20292;-94
2021/12/20 02:39:46;;;;;;;5.97;2.90;;;2.70;99.90;;;;;;5030300;28;20205;-94
2021/12/20 02:42:21;;;;;;;4.77;2.87;;;2.60;99.90;;;;;;5019543;28;20234;-96
2021/12/20 02:45:07;;;;;;;7.57;2.97;;;2.50;99.90;;;;;;5017925;28;20239;-95
2021/12/20 02:47:42;;;;;;;4.10;2.60;;;2.60;99.90;;;;;;5020432;28;20234;-95
2021/12/20 02:50:15;;;;;;;11.80;3.47;;;2.50;99.90;;;;;;5026082;28;20220;-93
2021/12/20 02:52:48;;;;;;;5.37;3.27;;;2.50;99.90;;;;;;5042506;28;20208;-95
2021/12/20 02:55:20;;;;;;;6.10;2.80;;;2.40;99.90;;;;;;5041798;28;20251;-95
2021/12/20 02:57:51;;;;;;;6.27;2.63;;;2.40;99.90;;;;;;5041268;28;20209;-94
2021/12/20 03:00:24;;;;;;;4.10;2.77;;;2.30;99.90;;;;;;5041935;28;20220;-95
2021/12/20 03:02:54;;;;;;;10.97;3.03;;;2.30;99.90;;;;;;5043046;28;20233;-94
2021/12/20 03:05:26;;;;;;;4.57;2.53;;;2.30;99.90;;;;;;5045283;28;20215;-95
2021/12/20 03:08:00;;;;;;;6.60;2.47;;;2.30;99.90;;;;;;5043870;28;20275;-94
2021/12/20 03:10:33;;;;;;;4.60;2.57;;;2.20;99.90;;;;;;5043010;28;20279;-94
2021/12/20 03:13:04;;;;;;;6.67;2.90;;;2.20;99.90;;;;;;5040748;28;20240;-95
2021/12/20 03:15:35;;;;;;;7.43;3.07;;;2.20;99.90;;;;;;5024170;28;20608;-95
2021/12/20 03:18:07;;;;;;;6.60;3.30;;;2.10;99.90;;;;;;5040646;28;20240;-94
2021/12/20 03:20:41;;;;;;;6.53;2.67;;;2.10;99.90;;;;;;5026134;28;20582;-96
2021/12/20 03:23:14;;;;;;;5.33;2.73;;;2.10;99.90;;;;;;5029832;28;20213;-95
2021/12/20 03:25:45;;;;;;;6.63;2.60;;;2.10;99.90;;;;;;5024107;28;20233;-95
2021/12/20 03:28:17;;;;;;;11.33;2.93;;;2.10;99.90;;;;;;5009336;28;20261;-95
2021/12/20 03:30:49;;;;;;;8.27;3.10;;;2.10;99.90;;;;;;5039525;28;20201;-94
2021/12/20 03:33:20;;;;;;;5.33;2.47;;;2.00;99.90;;;;;;5058750;28;20211;-94
2021/12/20 03:35:51;;;;;;;5.03;2.80;;;2.00;99.90;;;;;;5058926;28;20201;-92
2021/12/20 03:38:24;;;;;;;5.20;3.10;;;2.00;99.90;;;;;;5058396;28;20209;-94
2021/12/20 03:40:55;;;;;;;6.93;3.63;;;2.00;99.90;;;;;;5053123;28;20220;-94
2021/12/20 03:43:31;;;;;;;4.97;3.07;;;2.00;99.90;;;;;;5042972;28;20237;-94
2021/12/20 03:46:06;;;;;;;5.40;3.70;;;2.00;99.90;;;;;;5043072;28;20649;-96
2021/12/20 03:48:41;;;;;;;6.07;3.23;;;2.00;99.90;;;;;;5042733;28;20243;-94
2021/12/20 03:51:13;;;;;;;5.90;3.13;;;1.90;99.90;;;;;;5023272;28;20201;-95
2021/12/20 03:53:49;;;;;;;7.30;3.40;;;1.90;99.90;;;;;;5050843;28;20193;-94
2021/12/20 03:56:20;;;;;;;4.60;2.90;;;1.90;99.90;;;;;;5057942;28;20188;-96
2021/12/20 03:58:52;;;;;;;7.07;3.50;;;1.90;99.90;;;;;;5055062;28;20193;-94
2021/12/20 04:01:24;;;;;;;6.47;3.07;;;1.90;99.90;;;;;;5054144;28;20203;-95
2021/12/20 04:03:57;;;;;;;5.50;2.70;;;1.90;99.90;;;;;;5048043;28;20208;-96
2021/12/20 04:06:31;;;;;;;4.60;2.67;;;1.80;99.90;;;;;;5045877;28;20208;-96
2021/12/20 04:09:05;;;;;;;5.00;3.13;;;1.80;99.90;;;;;;5041872;28;20255;-95
2021/12/20 04:11:37;;;;;;;4.10;2.60;;;1.80;99.90;;;;;;5040944;28;20350;-95
2021/12/20 04:14:08;;;;;;;6.53;3.07;;;1.80;99.90;;;;;;5040269;28;20304;-96
2021/12/20 04:16:39;;;;;;;8.40;3.93;;;1.80;99.90;;;;;;5039107;28;20291;-94
2021/12/20 04:19:10;;;;;;;7.77;3.70;;;1.80;99.90;;;;;;5028922;28;20201;-95
2021/12/20 04:21:43;;;;;;;6.67;3.63;;;1.80;99.90;;;;;;5020120;28;20229;-95
2021/12/20 04:24:16;;;;;;;5.23;3.50;;;1.70;99.90;;;;;;5019164;28;20295;-94
2021/12/20 04:26:50;;;;;;;4.63;2.97;;;1.70;99.90;;;;;;5019993;28;20216;-95
2021/12/20 04:29:33;;;;;;;5.50;3.63;;;1.70;99.90;;;;;;5022155;28;20209;-96
2021/12/20 04:32:05;;;;;;;6.47;4.37;;;1.70;99.90;;;;;;5021118;28;20213;-96
2021/12/20 04:34:36;;;;;;;8.60;4.10;;;1.70;99.90;;;;;;5021471;28;20296;-96
2021/12/20 04:37:09;;;;;;;6.30;4.07;;;1.60;99.90;;;;;;5021225;28;20214;-95
2021/12/20 04:39:43;;;;;;;6.30;3.93;;;1.60;99.90;;;;;;5022846;28;20265;-96
2021/12/20 04:42:14;;;;;;;6.63;4.10;;;1.60;99.90;;;;;;5021122;28;20279;-96
2021/12/20 04:44:45;;;;;;;6.40;4.33;;;1.60;99.90;;;;;;5021390;28;20287;-95
2021/12/20 04:47:17;;;;;;;7.50;4.40;;;1.60;99.90;;;;;;5019759;28;20236;-96
2021/12/20 04:49:51;;;;;;;9.13;4.73;;;1.60;99.90;;;;;;5021765;28;20303;-96
2021/12/20 04:52:25;;;;;;;9.37;4.50;;;1.60;99.90;;;;;;5021202;28;20213;-96
2021/12/20 04:54:58;;;;;;;8.30;4.70;;;1.50;99.90;;;;;;5020577;28;20202;-95
2021/12/20 04:57:32;;;;;;;8.83;4.73;;;1.50;99.90;;;;;;5027696;28;20213;-94
2021/12/20 05:00:04;;;;;;;6.77;3.90;;;1.40;99.90;;;;;;5021408;28;20217;-95
2021/12/20 05:02:35;;;;;;;7.27;4.47;;;1.40;99.90;;;;;;5018169;28;20228;-95
2021/12/20 05:05:07;;;;;;;10.47;4.47;;;1.40;99.90;;;;;;5018082;28;20213;-95
2021/12/20 05:07:39;;;;;;;6.23;4.17;;;1.40;99.90;;;;;;5000709;28;20320;-94
2021/12/20 05:10:25;;;;;;;6.57;4.07;;;1.40;99.90;;;;;;5017817;28;20268;-95
2021/12/20 05:12:58;;;;;;;5.03;3.20;;;1.30;99.90;;;;;;5019195;28;20237;-96
2021/12/20 05:15:32;;;;;;;7.17;3.93;;;1.30;99.90;;;;;;5019099;28;20219;-96
2021/12/20 05:18:04;;;;;;;4.97;3.90;;;1.30;99.90;;;;;;5001100;28;20220;-95
2021/12/20 05:20:35;;;;;;;7.27;3.60;;;1.40;99.90;;;;;;5018566;28;20225;-96
2021/12/20 05:23:07;;;;;;;8.10;4.07;;;1.40;99.90;;;;;;5017395;28;20206;-95
2021/12/20 05:25:41;;;;;;;7.40;4.03;;;1.40;99.90;;;;;;5017900;28;20205;-96
2021/12/20 05:28:12;;;;;;;8.37;3.93;;;1.40;99.90;;;;;;5016689;28;20320;-94
2021/12/20 05:30:45;;;;;;;6.33;3.73;;;1.40;99.90;;;;;;5019736;28;20233;-95
2021/12/20 05:33:18;;;;;;;7.03;4.07;;;1.40;99.90;;;;;;5020162;28;20263;-94
2021/12/20 05:35:49;;;;;;;5.47;3.77;;;1.40;99.90;;;;;;5020456;28;20297;-93
2021/12/20 05:38:20;;;;;;;8.50;4.57;;;1.40;99.90;;;;;;5020304;28;20208;-94
2021/12/20 05:40:53;;;;;;;8.23;4.57;;;1.40;99.90;;;;;;5004137;28;20686;-95
2021/12/20 05:43:25;;;;;;;7.53;4.47;;;1.40;99.90;;;;;;5020157;28;20490;-94
2021/12/20 05:45:56;;;;;;;5.43;3.83;;;1.40;99.90;;;;;;5022509;28;20308;-95
2021/12/20 05:48:27;;;;;;;7.10;4.00;;;1.40;99.90;;;;;;5019211;28;20715;-95
2021/12/20 05:50:59;;;;;;;5.80;4.10;;;1.40;99.90;;;;;;5018666;28;20217;-96
2021/12/20 05:53:30;;;;;;;5.07;3.70;;;1.40;99.90;;;;;;5004754;28;20205;-95
2021/12/20 05:56:03;;;;;;;6.77;3.87;;;1.40;99.90;;;;;;5021868;28;20705;-96
2021/12/20 05:58:35;;;;;;;7.37;3.70;;;1.40;99.90;;;;;;5037506;28;20205;-95
2021/12/20 06:01:07;;;;;;;6.97;3.83;;;1.40;99.90;;;;;;5024445;28;20273;-93
2021/12/20 06:03:38;;;;;;;5.37;4.17;;;1.40;99.90;;;;;;5038152;28;20246;-94
2021/12/20 06:06:09;;;;;;;4.53;3.60;;;1.40;99.90;;;;;;5024531;28;20236;-95
2021/12/20 06:08:40;;;;;;;7.63;3.47;;;1.40;99.90;;;;;;5039183;28;20241;-94
2021/12/20 06:11:15;;;;;;;8.23;3.97;;;1.40;99.90;;;;;;5006667;28;20655;-94
2021/12/20 06:13:47;;;;;;;8.07;4.10;;;1.40;99.90;;;;;;5034492;28;20255;-95
2021/12/20 06:16:20;;;;;;;5.13;3.60;;;1.40;99.90;;;;;;5035468;28;20202;-95
2021/12/20 06:18:53;;;;;;;8.60;3.80;;;1.40;99.90;;;;;;5035569;28;20205;-95
2021/12/20 06:21:24;;;;;;;6.87;3.70;;;1.40;99.90;;;;;;5034353;28;20218;-95
2021/12/20 06:23:56;;;;;;;5.87;3.53;;;1.40;99.90;;;;;;5033566;28;20244;-94
2021/12/20 06:26:30;;;;;;;6.00;3.60;;;1.40;99.90;;;;;;5029054;28;20577;-95
2021/12/20 06:29:01;;;;;;;8.93;4.10;;;1.40;99.90;;;;;;5025360;28;20275;-94
2021/12/20 06:31:33;;;;;;;4.97;3.43;;;1.40;99.90;;;;;;5005072;28;20575;-94
2021/12/20 06:34:05;;;;;;;7.80;4.33;;;1.40;99.90;;;;;;5021056;28;20213;-95
2021/12/20 06:36:36;;;;;;;8.57;3.57;;;1.40;99.90;;;;;;5023017;28;20206;-95
2021/12/20 06:39:09;;;;;;;7.70;4.10;;;1.40;99.90;;;;;;5004626;28;20206;-94
2021/12/20 06:41:43;;;;;;;5.77;3.60;;;1.40;99.90;;;;;;5021004;28;20236;-96
2021/12/20 06:44:14;;;;;;;5.10;4.07;;;1.40;99.90;;;;;;5022834;28;20205;-96
2021/12/20 06:46:46;;;;;;;7.10;4.17;;;1.30;99.90;;;;;;5020764;28;20292;-94
2021/12/20 06:49:19;;;;;;;8.57;4.73;;;1.30;99.90;;;;;;5033185;28;20255;-95
2021/12/20 06:51:52;;;;;;;5.93;4.10;;;1.30;99.90;;;;;;5043159;28;20252;-94
2021/12/20 06:54:24;;;;;;;6.40;4.37;;;1.20;99.90;;;;;;5044164;28;20205;-94
2021/12/20 06:56:56;;;;;;;7.80;4.73;;;1.20;99.90;;;;;;5040842;28;20272;-94
2021/12/20 06:59:27;;;;;;;6.40;4.80;;;1.20;99.90;;;;;;5044432;28;20201;-95
2021/12/20 07:01:59;;;;;;;6.50;4.40;;;1.10;99.90;;;;;;5044545;28;20212;-94
2021/12/20 07:04:30;;;;;;;7.33;4.60;;;1.10;99.90;;;;;;5026016;28;20228;-94
2021/12/20 07:07:02;;;;;;;6.10;4.57;;;1.10;99.90;;;;;;5042486;28;20255;-95
2021/12/20 07:09:33;;;;;;;7.17;5.20;;;1.10;99.90;;;;;;5023813;28;20713;-93
2021/12/20 07:12:07;;;;;;;13.13;6.13;;;1.20;99.90;;;;;;5031111;28;20220;-93
2021/12/20 07:14:40;;;;;;;7.90;5.17;;;1.20;99.90;;;;;;5024250;28;20278;-93
2021/12/20 07:17:11;;;;;;;10.47;5.13;;;1.20;99.90;;;;;;5020070;28;20210;-95
2021/12/20 07:19:43;;;;;;;12.17;6.17;;;1.20;99.90;;;;;;5036123;28;20225;-94
2021/12/20 07:22:14;;;;;;;10.83;6.83;;;1.20;99.90;;;;;;5024885;28;20236;-95
2021/12/20 07:24:46;;;;;;;11.60;8.40;;;1.20;99.90;;;;;;5036731;28;20332;-95
2021/12/20 07:27:21;;;;;;;10.17;7.27;;;1.30;99.90;;;;;;5020293;28;20577;-95
2021/12/20 07:29:54;;;;;;;12.47;7.87;;;1.30;99.90;;;;;;5023040;28;20233;-94
2021/12/20 07:32:26;;;;;;;11.77;7.53;;;1.30;99.90;;;;;;5020549;28;20219;-95
2021/12/20 07:34:57;;;;;;;11.60;7.97;;;1.30;99.90;;;;;;5036543;28;20209;-96
2021/12/20 07:37:29;;;;;;;12.10;7.27;;;1.30;99.90;;;;;;5022540;28;20212;-96
2021/12/20 07:40:02;;;;;;;10.07;6.17;;;1.30;99.90;;;;;;5020847;28;20236;-95
2021/12/20 07:42:35;;;;;;;8.27;5.87;;;1.30;99.90;;;;;;5020836;28;20218;-96
2021/12/20 07:45:07;;;;;;;10.63;6.93;;;1.30;99.90;;;;;;5020465;28;20224;-95
2021/12/20 07:47:53;;;;;;;9.60;6.30;;;1.30;99.90;;;;;;5019066;28;20264;-95
2021/12/20 07:50:24;;;;;;;8.30;5.73;;;1.20;99.90;;;;;;5022301;28;20300;-94
2021/12/20 07:52:56;;;;;;;9.83;5.73;;;1.20;99.90;;;;;;5018440;28;20218;-96
2021/12/20 07:55:29;;;;;;;7.90;5.23;;;1.20;99.90;;;;;;5019934;28;20202;-95
2021/12/20 07:58:02;;;;;;;8.43;5.70;;;1.20;99.90;;;;;;5018566;28;20642;-95
2021/12/20 08:00:34;;;;;;;7.17;5.43;;;1.20;99.90;;;;;;5022190;28;20206;-96
2021/12/20 08:03:06;;;;;;;7.83;4.97;;;1.20;99.90;;;;;;5019628;28;20300;-96
2021/12/20 08:05:37;;;;;;;8.40;5.57;;;1.20;99.90;;;;;;5020219;28;20210;-95
2021/12/20 08:08:09;;;;;;;8.03;4.97;;;1.20;99.90;;;;;;5020505;28;20228;-95
2021/12/20 08:10:41;;;;;;;7.17;5.30;;;1.10;99.90;;;;;;5019154;28;20237;-95
2021/12/20 08:13:16;;;;;;;7.87;5.37;;;1.10;99.90;;;;;;5019022;28;20206;-94
2021/12/20 08:15:47;;;;;;;7.63;4.40;;;1.10;99.90;;;;;;5018585;28;20663;-95
2021/12/20 08:18:20;;;;;;;5.97;4.40;;;1.20;99.90;;;;;;5018171;28;20593;-94
2021/12/20 08:20:51;;;;;;;7.27;4.53;;;1.20;99.90;;;;;;5033999;28;20219;-95
2021/12/20 08:23:22;;;;;;;5.93;4.37;;;1.20;99.90;;;;;;5019344;28;20258;-95
2021/12/20 08:25:53;;;;;;;7.00;4.57;;;1.20;99.90;;;;;;5019123;28;20223;-95
2021/12/20 08:28:27;;;;;;;5.27;4.27;;;1.20;99.90;;;;;;5003204;28;20210;-95
2021/12/20 08:30:58;;;;;;;6.03;4.40;;;1.20;99.90;;;;;;5000268;28;20320;-95
2021/12/20 08:33:29;;;;;;;5.97;4.00;;;1.20;99.90;;;;;;5000871;28;20195;-96
2021/12/20 08:36:01;;;;;;;7.00;4.37;;;1.20;99.90;;;;;;5015976;28;20193;-96
2021/12/20 08:38:38;;;;;;;5.93;4.13;;;1.20;99.90;;;;;;5007023;28;20672;-96
2021/12/20 08:41:12;;;;;;;5.67;4.07;;;1.20;99.90;;;;;;5002377;28;20202;-96
2021/12/20 08:43:46;;;;;;;5.57;4.53;;;1.20;99.90;;;;;;5001374;28;20233;-96
2021/12/20 08:46:18;;;;;;;5.00;4.17;;;1.30;99.90;;;;;;4999538;28;20292;-95
2021/12/20 08:48:51;;;;;;;5.97;4.17;;;1.30;99.90;;;;;;5000562;28;20236;-95
2021/12/20 08:51:22;;;;;;;7.20;4.17;;;1.30;99.90;;;;;;5001547;28;20259;-95
2021/12/20 08:53:54;;;;;;;6.00;4.20;;;1.30;99.90;;;;;;5001915;28;20203;-95
2021/12/20 08:56:27;;;;;;;6.27;4.00;;;1.20;99.90;;;;;;5003324;28;20274;-95
2021/12/20 08:59:00;;;;;;;5.93;3.87;;;1.20;99.90;;;;;;5031004;28;20229;-95
2021/12/20 09:01:33;;;;;;;4.30;3.40;;;1.20;99.90;;;;;;5047505;28;20181;-95
2021/12/20 09:04:05;;;;;;;6.47;3.70;;;1.20;99.90;;;;;;5039383;28;20197;-95
2021/12/20 09:06:40;;;;;;;4.87;3.27;;;1.20;99.90;;;;;;5052385;28;20217;-95
2021/12/20 09:09:13;;;;;;;6.70;3.77;;;1.20;99.90;;;;;;5042799;28;20764;-96
2021/12/20 09:11:45;;;;;;;5.03;3.67;;;1.20;99.90;;;;;;5038417;28;20657;-95
2021/12/20 09:14:19;;;;;;;6.53;3.30;;;1.20;99.90;;;;;;5039278;28;20631;-96
2021/12/20 09:16:51;;;;;;;6.23;4.20;;;1.20;99.90;;;;;;5021223;28;20205;-96
2021/12/20 09:19:23;;;;;;;4.93;3.17;;;1.20;99.90;;;;;;5039094;28;20292;-94
2021/12/20 09:21:55;;;;;;;5.77;2.97;;;1.20;99.90;;;;;;5040948;28;20653;-94
2021/12/20 09:24:27;;;;;;;5.73;3.40;;;1.20;99.90;;;;;;5037593;28;20213;-95
2021/12/20 09:26:58;;;;;;;7.60;3.37;;;1.20;99.90;;;;;;5036751;28;20236;-96
2021/12/20 09:29:31;;;;;;;4.40;3.10;;;1.20;99.90;;;;;;5038463;28;20259;-95
2021/12/20 09:32:02;;;;;;;6.30;3.43;;;1.20;99.90;;;;;;5037753;28;20232;-96
2021/12/20 09:34:34;;;;;;;4.57;3.10;;;1.10;99.90;;;;;;5037837;28;20216;-96
2021/12/20 09:37:08;;;;;;;5.57;3.40;;;1.20;99.90;;;;;;5038085;28;20204;-94
2021/12/20 09:39:41;;;;;;;4.80;2.80;;;1.20;99.90;;;;;;5041122;28;20209;-96
2021/12/20 09:42:14;;;;;;;4.33;3.07;;;1.20;99.90;;;;;;5037594;28;20231;-95
2021/12/20 09:44:48;;;;;;;4.83;3.23;;;1.10;99.90;;;;;;5039109;28;20280;-96
2021/12/20 09:47:20;;;;;;;6.27;3.20;;;1.10;99.90;;;;;;5036687;28;20250;-96
2021/12/20 09:49:51;;;;;;;4.30;2.43;;;1.10;99.90;;;;;;5036720;28;20712;-96
2021/12/20 09:52:27;;;;;;;5.67;2.63;;;1.20;99.90;;;;;;5036740;28;20209;-94
2021/12/20 09:54:58;;;;;;;4.87;2.63;;;1.20;99.90;;;;;;5018069;28;20213;-95
2021/12/20 09:57:30;;;;;;;3.20;2.70;;;1.10;99.90;;;;;;5018310;28;20221;-95
2021/12/20 10:00:05;;;;;;;4.30;3.00;;;1.10;99.90;;;;;;5021893;28;20271;-95
2021/12/20 10:02:37;;;;;;;3.70;2.50;;;1.20;99.90;;;;;;5022120;28;20579;-94
2021/12/20 10:05:09;;;;;;;5.03;2.87;;;1.20;99.90;;;;;;5023178;28;20204;-95
2021/12/20 10:07:41;;;;;;;4.17;2.70;;;1.10;99.90;;;;;;5020527;28;20288;-95
2021/12/20 10:10:13;;;;;;;4.37;2.87;;;1.10;99.90;;;;;;5023311;28;20312;-95
2021/12/20 10:12:51;;;;;;;4.70;2.80;;;1.10;99.90;;;;;;5023945;28;20257;-95
2021/12/20 10:15:33;;;;;;;4.27;2.60;;;1.10;99.90;;;;;;5023072;28;20208;-95
2021/12/20 10:18:05;;;;;;;4.00;3.00;;;1.10;99.90;;;;;;5020329;28;20740;-96
2021/12/20 10:20:38;;;;;;;5.43;2.67;;;1.10;99.90;;;;;;5021406;28;20217;-93
2021/12/20 10:23:14;;;;;;;4.10;2.80;;;1.10;99.90;;;;;;5021394;28;20236;-95
2021/12/20 10:25:47;;;;;;;3.07;2.77;;;1.10;99.90;;;;;;5020900;28;20233;-95
2021/12/20 10:28:23;;;;;;;4.17;2.37;;;1.10;99.90;;;;;;5003376;28;20240;-94
2021/12/20 10:31:01;;;;;;;3.93;2.97;;;1.10;99.90;;;;;;5021928;28;20705;-94
2021/12/20 10:33:32;;;;;;;3.60;2.50;;;1.20;99.90;;;;;;5020628;28;20288;-95
2021/12/20 10:36:06;;;;;;;4.57;3.00;;;1.20;99.90;;;;;;5022881;28;20208;-95
2021/12/20 10:38:39;;;;;;;3.50;2.80;;;1.10;99.90;;;;;;5023481;28;20272;-96
2021/12/20 10:41:14;;;;;;;4.20;2.93;;;1.10;99.90;;;;;;5021482;28;20236;-96
2021/12/20 10:43:50;;;;;;;4.10;2.60;;;1.10;99.90;;;;;;5023705;28;20239;-95
2021/12/20 10:46:26;;;;;;;3.37;2.57;;;1.20;99.90;;;;;;5021427;28;20570;-96
2021/12/20 10:49:03;;;;;;;5.10;3.03;;;1.20;99.90;;;;;;5015471;28;20213;-96
2021/12/20 10:51:38;;;;;;;3.30;2.47;;;1.20;99.90;;;;;;5039716;28;20248;-95
2021/12/20 10:54:13;;;;;;;2.90;2.60;;;1.20;99.90;;;;;;5039235;28;20212;-94
2021/12/20 10:56:55;;;;;;;3.37;2.63;;;1.20;99.90;;;;;;5037925;28;20185;-95
2021/12/20 10:59:29;;;;;;;3.73;2.30;;;1.20;99.90;;;;;;5033389;28;20682;-95
2021/12/20 11:04:58;;;;;;;4.00;2.50;;;1.30;99.90;;;;;;5019437;28;20210;-94
2021/12/20 11:10:18;;;;;;;3.93;2.40;;;1.40;99.90;;;;;;5039509;28;20231;-94
2021/12/20 11:12:49;;;;;;;3.00;1.97;;;1.50;99.90;;;;;;5039398;28;20212;-94
2021/12/20 11:15:20;;;;;;;4.43;2.33;;;1.60;99.90;;;;;;5039694;28;20204;-94
2021/12/20 11:17:53;;;;;;;5.87;2.40;;;1.60;99.90;;;;;;5039976;28;20223;-95
2021/12/20 11:20:24;;;;;;;3.63;2.03;;;1.60;99.90;;;;;;5038531;28;20201;-94
2021/12/20 11:23:04;;;;;;;2.97;2.00;;;1.70;99.90;;;;;;5022241;28;20228;-94
2021/12/20 11:25:37;;;;;;;3.70;1.80;;;1.70;99.90;;;;;;5040698;28;20538;-93
2021/12/20 11:28:08;;;;;;;3.03;2.17;;;1.70;99.90;;;;;;5044622;28;20209;-95
2021/12/20 11:30:38;;;;;;;4.20;2.00;;;1.70;99.90;;;;;;5040649;28;20368;-94
2021/12/20 11:33:14;;;;;;;3.47;2.10;;;1.80;99.90;;;;;;5041302;28;20236;-95
2021/12/20 11:35:45;;;;;;;3.30;2.17;;;1.80;99.90;;;;;;5052097;28;20249;-95
2021/12/20 11:38:16;;;;;;;4.27;2.20;;;1.80;99.90;;;;;;5050776;28;21682;-93
2021/12/20 11:40:49;;;;;;;3.53;2.23;;;1.80;99.90;;;;;;5035588;28;20792;-95
2021/12/20 11:43:21;;;;;;;5.10;2.47;;;1.90;99.90;;;;;;5025203;28;20265;-95
2021/12/20 11:45:53;;;;;;;2.70;1.80;;;1.90;99.90;;;;;;5023644;28;20209;-96
2021/12/20 11:48:28;;;;;;;2.80;2.10;;;1.90;99.90;;;;;;5023967;28;20268;-96
2021/12/20 11:51:00;;;;;;;2.50;1.80;;;1.90;99.90;;;;;;5025040;28;20671;-94
2021/12/20 11:53:37;;;;;;;3.77;2.30;;;1.90;99.90;;;;;;5038318;28;20198;-94
2021/12/20 11:56:09;;;;;;;4.37;2.20;;;2.00;99.90;;;;;;5023694;28;20296;-96
2021/12/20 11:58:48;;;;;;;2.50;1.70;;;2.00;99.90;;;;;;5022104;28;20206;-96
2021/12/20 12:01:21;;;;;;;2.33;1.70;;;2.00;99.90;;;;;;5021588;28;20202;-94
2021/12/20 12:04:07;;;;;;;3.87;2.40;;;1.80;99.90;;;;;;5023563;28;20209;-95
2021/12/20 12:06:40;;;;;;;3.30;1.90;;;1.80;99.90;;;;;;5026122;28;20193;-93
2021/12/20 12:09:11;;;;;;;2.67;1.83;;;1.80;99.90;;;;;;5038145;28;20251;-94
2021/12/20 12:12:25;;;;;;;2.27;1.80;;;1.80;99.90;;;;;;5036139;28;20263;-93
2021/12/20 12:15:16;;;;;;;3.77;2.20;;;1.80;99.90;;;;;;5074249;23;20251;-94
2021/12/20 12:17:59;;;;;;;2.53;1.77;;;1.80;99.90;;;;;;5057321;28;20207;-94
2021/12/20 12:20:54;;;;;;;4.00;1.90;;;1.80;99.90;;;;;;5056054;28;20209;-94
2021/12/20 12:23:27;;;;;;;2.50;1.97;;;1.90;99.90;;;;;;5056598;28;20233;-94
2021/12/20 12:25:59;;;;;;;2.03;1.60;;;1.90;99.90;;;;;;5047279;28;20228;-94
2021/12/20 12:28:55;;;;;;;2.50;1.67;;;1.90;99.90;;;;;;5042872;28;20212;-95
2021/12/20 12:31:28;;;;;;;2.10;1.63;;;1.90;99.90;;;;;;5049884;28;20221;-94
2021/12/20 12:34:08;;;;;;;3.23;1.80;;;1.90;99.90;;;;;;5043301;28;20249;-93
2021/12/20 12:36:42;;;;;;;2.60;2.00;;;1.90;99.90;;;;;;5042550;28;20208;-96
2021/12/20 12:39:21;;;;;;;2.47;1.90;;;1.90;99.90;;;;;;5042870;28;20288;-95
2021/12/20 12:41:56;;;;;;;4.10;1.90;;;1.90;99.90;;;;;;5043980;28;20239;-94
2021/12/20 12:44:29;;;;;;;3.10;1.93;;;1.90;99.90;;;;;;5043521;28;20232;-95
2021/12/20 12:47:08;;;;;;;2.63;1.80;;;1.90;99.90;;;;;;5041120;28;20268;-95
2021/12/20 12:49:46;;;;;;;2.30;1.70;;;1.90;99.90;;;;;;5037985;28;20232;-95
2021/12/20 12:52:38;;;;;;;3.53;1.67;;;1.90;99.90;;;;;;5020693;28;20233;-93
2021/12/20 12:55:33;;;;;;;2.40;1.83;;;1.90;99.90;;;;;;5021205;28;20201;-95
2021/12/20 12:58:23;;;;;;;3.53;1.80;;;1.90;99.90;;;;;;5019708;28;20213;-95
2021/12/20 13:01:00;;;;;;;2.00;1.60;;;2.00;99.90;;;;;;5021986;28;20271;-95
2021/12/20 13:03:32;;;;;;;2.50;1.80;;;1.90;99.90;;;;;;5024407;28;20205;-95
2021/12/20 13:06:04;;;;;;;2.53;1.80;;;1.90;99.90;;;;;;5031581;28;20202;-95
2021/12/20 13:08:51;;;;;;;4.37;2.07;;;2.00;99.90;;;;;;5043841;28;20205;-95
2021/12/20 13:11:25;;;;;;;4.13;2.23;;;2.10;99.90;;;;;;5054016;28;20207;-96
2021/12/20 13:14:09;;;;;;;3.60;2.10;;;2.00;99.90;;;;;;5053104;28;20220;-95
2021/12/20 13:16:52;;;;;;;2.20;1.63;;;2.00;99.90;;;;;;5041327;28;20231;-95
2021/12/20 13:19:32;;;;;;;2.60;1.80;;;2.10;99.90;;;;;;5041381;28;20204;-95
2021/12/20 13:22:06;;;;;;;2.87;1.90;;;2.00;99.90;;;;;;5040477;28;20247;-93
2021/12/20 13:24:40;;;;;;;4.23;2.13;;;2.00;99.90;;;;;;5040545;28;20213;-95
2021/12/20 13:27:11;;;;;;;4.37;2.70;;;2.00;99.90;;;;;;5038817;28;20272;-95
2021/12/20 13:29:50;;;;;;;4.87;3.37;;;2.10;99.90;;;;;;5039996;28;20229;-95
2021/12/20 13:32:23;;;;;;;4.40;3.00;;;2.00;99.90;;;;;;5043225;28;20270;-95
2021/12/20 13:34:56;;;;;;;5.87;2.87;;;2.10;99.90;;;;;;5038949;28;20262;-94
2021/12/20 13:37:35;;;;;;;3.27;2.10;;;2.10;99.90;;;;;;5038696;28;20205;-94
2021/12/20 13:40:09;;;;;;;2.87;1.90;;;2.00;99.90;;;;;;5038369;28;20205;-95
2021/12/20 13:42:54;;;;;;;2.80;1.80;;;2.00;99.90;;;;;;5038562;28;20200;-95